sensor_id;sensor_type;location;lat;lon;timestamp;P1;durP1;ratioP1;P2;durP2;ratioP2
1106;SDS011;540;49.448;8.612;2022-07-18T00:02:18;3.60;;;0.90;;
1106;SDS011;540;49.448;8.612;2022-07-18T00:04:46;2.50;;;0.93;;
1106;SDS011;540;49.448;8.612;2022-07-18T00:07:14;3.10;;;1.00;;
1106;SDS011;540;49.448;8.612;2022-07-18T00:09:42;1.60;;;0.88;;
1106;SDS011;540;49.448;8.612;2022-07-18T00:12:10;5.78;;;1.30;;
1106;SDS011;540;49.448;8.612;2022-07-18T00:14:40;4.25;;;0.98;;
1106;SDS011;540;49.448;8.612;2022-07-18T00:17:08;3.47;;;0.95;;
1106;SDS011;540;49.448;8.612;2022-07-18T00:19:37;1.75;;;0.93;;
1106;SDS011;540;49.448;8.612;2022-07-18T00:22:05;3.58;;;1.30;;
1106;SDS011;540;49.448;8.612;2022-07-18T00:24:33;2.42;;;1.25;;
1106;SDS011;540;49.448;8.612;2022-07-18T00:27:04;7.68;;;1.63;;
1106;SDS011;540;49.448;8.612;2022-07-18T00:29:33;10.00;;;1.90;;
1106;SDS011;540;49.448;8.612;2022-07-18T00:32:04;10.50;;;1.67;;
1106;SDS011;540;49.448;8.612;2022-07-18T00:34:33;4.10;;;2.08;;
1106;SDS011;540;49.448;8.612;2022-07-18T00:37:02;3.08;;;1.48;;
1106;SDS011;540;49.448;8.612;2022-07-18T00:39:30;5.20;;;1.80;;
1106;SDS011;540;49.448;8.612;2022-07-18T00:41:58;3.88;;;1.65;;
1106;SDS011;540;49.448;8.612;2022-07-18T00:44:26;4.53;;;1.70;;
1106;SDS011;540;49.448;8.612;2022-07-18T00:46:56;3.47;;;1.35;;
1106;SDS011;540;49.448;8.612;2022-07-18T00:49:26;5.28;;;1.90;;
1106;SDS011;540;49.448;8.612;2022-07-18T00:51:55;6.15;;;1.85;;
1106;SDS011;540;49.448;8.612;2022-07-18T00:54:23;7.75;;;1.42;;
1106;SDS011;540;49.448;8.612;2022-07-18T00:56:51;5.28;;;1.75;;
1106;SDS011;540;49.448;8.612;2022-07-18T00:59:20;2.38;;;1.52;;
1106;SDS011;540;49.448;8.612;2022-07-18T01:01:47;4.15;;;1.50;;
1106;SDS011;540;49.448;8.612;2022-07-18T01:04:16;4.00;;;1.40;;
1106;SDS011;540;49.448;8.612;2022-07-18T01:06:47;4.93;;;1.63;;
1106;SDS011;540;49.448;8.612;2022-07-18T01:09:16;3.08;;;1.25;;
1106;SDS011;540;49.448;8.612;2022-07-18T01:11:45;6.05;;;1.30;;
1106;SDS011;540;49.448;8.612;2022-07-18T01:14:14;5.35;;;1.45;;
1106;SDS011;540;49.448;8.612;2022-07-18T01:16:42;4.15;;;1.50;;
1106;SDS011;540;49.448;8.612;2022-07-18T01:19:11;5.65;;;1.40;;
1106;SDS011;540;49.448;8.612;2022-07-18T01:21:40;5.15;;;1.40;;
1106;SDS011;540;49.448;8.612;2022-07-18T01:24:08;5.18;;;1.83;;
1106;SDS011;540;49.448;8.612;2022-07-18T01:26:36;6.15;;;1.80;;
1106;SDS011;540;49.448;8.612;2022-07-18T01:29:05;5.97;;;2.15;;
1106;SDS011;540;49.448;8.612;2022-07-18T01:31:33;9.98;;;1.67;;
1106;SDS011;540;49.448;8.612;2022-07-18T01:34:01;3.95;;;1.50;;
1106;SDS011;540;49.448;8.612;2022-07-18T01:36:29;6.60;;;1.75;;
1106;SDS011;540;49.448;8.612;2022-07-18T01:38:59;6.97;;;2.13;;
1106;SDS011;540;49.448;8.612;2022-07-18T01:41:27;3.80;;;1.70;;
1106;SDS011;540;49.448;8.612;2022-07-18T01:43:55;4.63;;;1.90;;
1106;SDS011;540;49.448;8.612;2022-07-18T01:46:23;7.50;;;2.00;;
1106;SDS011;540;49.448;8.612;2022-07-18T01:48:51;4.32;;;1.70;;
1106;SDS011;540;49.448;8.612;2022-07-18T01:51:18;6.13;;;2.00;;
1106;SDS011;540;49.448;8.612;2022-07-18T01:53:52;8.95;;;2.08;;
1106;SDS011;540;49.448;8.612;2022-07-18T01:56:23;4.65;;;1.73;;
1106;SDS011;540;49.448;8.612;2022-07-18T01:58:51;3.55;;;1.65;;
1106;SDS011;540;49.448;8.612;2022-07-18T02:01:19;5.82;;;1.75;;
1106;SDS011;540;49.448;8.612;2022-07-18T02:03:47;6.57;;;1.80;;
1106;SDS011;540;49.448;8.612;2022-07-18T02:06:15;4.05;;;1.60;;
1106;SDS011;540;49.448;8.612;2022-07-18T02:08:42;6.18;;;1.75;;
1106;SDS011;540;49.448;8.612;2022-07-18T02:11:10;1.95;;;1.25;;
1106;SDS011;540;49.448;8.612;2022-07-18T02:13:39;4.05;;;1.40;;
1106;SDS011;540;49.448;8.612;2022-07-18T02:16:07;3.47;;;1.45;;
1106;SDS011;540;49.448;8.612;2022-07-18T02:18:35;3.13;;;1.35;;
1106;SDS011;540;49.448;8.612;2022-07-18T02:21:08;3.33;;;1.23;;
1106;SDS011;540;49.448;8.612;2022-07-18T02:23:36;2.13;;;1.30;;
1106;SDS011;540;49.448;8.612;2022-07-18T02:26:04;1.75;;;1.05;;
1106;SDS011;540;49.448;8.612;2022-07-18T02:28:32;3.05;;;1.30;;
1106;SDS011;540;49.448;8.612;2022-07-18T02:31:02;2.03;;;1.30;;
1106;SDS011;540;49.448;8.612;2022-07-18T02:33:30;3.63;;;1.80;;
1106;SDS011;540;49.448;8.612;2022-07-18T02:36:00;6.43;;;1.45;;
1106;SDS011;540;49.448;8.612;2022-07-18T02:38:28;4.55;;;1.70;;
1106;SDS011;540;49.448;8.612;2022-07-18T02:40:56;6.28;;;2.10;;
1106;SDS011;540;49.448;8.612;2022-07-18T02:43:24;4.70;;;1.67;;
1106;SDS011;540;49.448;8.612;2022-07-18T02:45:52;7.00;;;1.80;;
1106;SDS011;540;49.448;8.612;2022-07-18T02:48:21;4.57;;;1.65;;
1106;SDS011;540;49.448;8.612;2022-07-18T02:50:49;4.53;;;1.80;;
1106;SDS011;540;49.448;8.612;2022-07-18T02:53:16;7.28;;;1.88;;
1106;SDS011;540;49.448;8.612;2022-07-18T02:55:45;6.65;;;1.60;;
1106;SDS011;540;49.448;8.612;2022-07-18T02:58:13;2.97;;;1.75;;
1106;SDS011;540;49.448;8.612;2022-07-18T03:00:41;4.45;;;1.60;;
1106;SDS011;540;49.448;8.612;2022-07-18T03:03:09;4.40;;;2.25;;
1106;SDS011;540;49.448;8.612;2022-07-18T03:05:38;4.22;;;1.58;;
1106;SDS011;540;49.448;8.612;2022-07-18T03:08:06;5.15;;;1.55;;
1106;SDS011;540;49.448;8.612;2022-07-18T03:10:33;2.45;;;1.15;;
1106;SDS011;540;49.448;8.612;2022-07-18T03:13:01;2.50;;;1.40;;
1106;SDS011;540;49.448;8.612;2022-07-18T03:15:29;11.45;;;1.65;;
1106;SDS011;540;49.448;8.612;2022-07-18T03:17:57;4.22;;;1.45;;
1106;SDS011;540;49.448;8.612;2022-07-18T03:20:25;3.00;;;1.95;;
1106;SDS011;540;49.448;8.612;2022-07-18T03:22:54;5.95;;;1.90;;
1106;SDS011;540;49.448;8.612;2022-07-18T03:25:22;3.42;;;1.73;;
1106;SDS011;540;49.448;8.612;2022-07-18T03:27:50;4.88;;;1.60;;
1106;SDS011;540;49.448;8.612;2022-07-18T03:30:18;4.80;;;1.65;;
1106;SDS011;540;49.448;8.612;2022-07-18T03:32:45;3.28;;;1.80;;
1106;SDS011;540;49.448;8.612;2022-07-18T03:35:13;2.30;;;1.65;;
1106;SDS011;540;49.448;8.612;2022-07-18T03:37:41;8.15;;;2.55;;
1106;SDS011;540;49.448;8.612;2022-07-18T03:40:11;2.83;;;1.45;;
1106;SDS011;540;49.448;8.612;2022-07-18T03:42:39;10.02;;;1.67;;
1106;SDS011;540;49.448;8.612;2022-07-18T03:45:07;5.72;;;1.73;;
1106;SDS011;540;49.448;8.612;2022-07-18T03:47:36;6.22;;;1.60;;
1106;SDS011;540;49.448;8.612;2022-07-18T03:50:04;5.78;;;1.70;;
1106;SDS011;540;49.448;8.612;2022-07-18T03:52:32;2.80;;;1.42;;
1106;SDS011;540;49.448;8.612;2022-07-18T03:55:00;2.90;;;1.50;;
1106;SDS011;540;49.448;8.612;2022-07-18T03:57:30;3.00;;;1.30;;
1106;SDS011;540;49.448;8.612;2022-07-18T03:59:58;5.88;;;2.13;;
1106;SDS011;540;49.448;8.612;2022-07-18T04:02:26;2.72;;;1.60;;
1106;SDS011;540;49.448;8.612;2022-07-18T04:04:54;4.93;;;1.58;;
1106;SDS011;540;49.448;8.612;2022-07-18T04:07:21;9.98;;;1.95;;
1106;SDS011;540;49.448;8.612;2022-07-18T04:09:49;3.00;;;1.40;;
1106;SDS011;540;49.448;8.612;2022-07-18T04:12:19;4.00;;;1.55;;
1106;SDS011;540;49.448;8.612;2022-07-18T04:14:48;2.92;;;2.10;;
1106;SDS011;540;49.448;8.612;2022-07-18T04:17:16;3.25;;;1.63;;
1106;SDS011;540;49.448;8.612;2022-07-18T04:19:44;4.55;;;2.60;;
1106;SDS011;540;49.448;8.612;2022-07-18T04:22:12;5.32;;;1.73;;
1106;SDS011;540;49.448;8.612;2022-07-18T04:24:40;5.65;;;2.03;;
1106;SDS011;540;49.448;8.612;2022-07-18T04:27:08;6.63;;;1.90;;
1106;SDS011;540;49.448;8.612;2022-07-18T04:29:36;7.65;;;1.58;;
1106;SDS011;540;49.448;8.612;2022-07-18T04:32:06;5.32;;;1.67;;
1106;SDS011;540;49.448;8.612;2022-07-18T04:34:34;6.00;;;2.25;;
1106;SDS011;540;49.448;8.612;2022-07-18T04:37:02;3.13;;;1.80;;
1106;SDS011;540;49.448;8.612;2022-07-18T04:39:30;4.18;;;1.75;;
1106;SDS011;540;49.448;8.612;2022-07-18T04:41:58;3.40;;;1.65;;
1106;SDS011;540;49.448;8.612;2022-07-18T04:44:25;7.00;;;4.35;;
1106;SDS011;540;49.448;8.612;2022-07-18T04:46:53;3.97;;;2.03;;
1106;SDS011;540;49.448;8.612;2022-07-18T04:49:22;3.20;;;2.20;;
1106;SDS011;540;49.448;8.612;2022-07-18T04:51:50;2.92;;;1.77;;
1106;SDS011;540;49.448;8.612;2022-07-18T04:54:18;4.18;;;2.03;;
1106;SDS011;540;49.448;8.612;2022-07-18T04:56:46;3.15;;;2.03;;
1106;SDS011;540;49.448;8.612;2022-07-18T04:59:14;6.00;;;1.92;;
1106;SDS011;540;49.448;8.612;2022-07-18T05:01:42;5.45;;;2.17;;
1106;SDS011;540;49.448;8.612;2022-07-18T05:04:10;4.32;;;2.00;;
1106;SDS011;540;49.448;8.612;2022-07-18T05:06:39;8.65;;;2.08;;
1106;SDS011;540;49.448;8.612;2022-07-18T05:09:07;6.28;;;2.50;;
1106;SDS011;540;49.448;8.612;2022-07-18T05:11:35;6.10;;;2.90;;
1106;SDS011;540;49.448;8.612;2022-07-18T05:14:03;9.98;;;3.15;;
1106;SDS011;540;49.448;8.612;2022-07-18T05:16:30;9.07;;;3.38;;
1106;SDS011;540;49.448;8.612;2022-07-18T05:18:59;10.07;;;3.42;;
1106;SDS011;540;49.448;8.612;2022-07-18T05:21:27;8.38;;;3.22;;
1106;SDS011;540;49.448;8.612;2022-07-18T05:23:56;11.88;;;3.10;;
1106;SDS011;540;49.448;8.612;2022-07-18T05:26:24;7.88;;;2.85;;
1106;SDS011;540;49.448;8.612;2022-07-18T05:28:57;8.85;;;2.88;;
1106;SDS011;540;49.448;8.612;2022-07-18T05:31:25;9.07;;;2.92;;
1106;SDS011;540;49.448;8.612;2022-07-18T05:33:53;13.65;;;3.33;;
1106;SDS011;540;49.448;8.612;2022-07-18T05:36:21;6.68;;;2.58;;
1106;SDS011;540;49.448;8.612;2022-07-18T05:38:49;5.45;;;2.38;;
1106;SDS011;540;49.448;8.612;2022-07-18T05:41:18;3.58;;;2.15;;
1106;SDS011;540;49.448;8.612;2022-07-18T05:43:46;4.68;;;1.80;;
1106;SDS011;540;49.448;8.612;2022-07-18T05:46:13;11.75;;;2.47;;
1106;SDS011;540;49.448;8.612;2022-07-18T05:48:43;10.55;;;2.35;;
1106;SDS011;540;49.448;8.612;2022-07-18T05:51:12;6.38;;;2.85;;
1106;SDS011;540;49.448;8.612;2022-07-18T05:53:40;6.85;;;2.13;;
1106;SDS011;540;49.448;8.612;2022-07-18T05:56:08;8.00;;;2.28;;
1106;SDS011;540;49.448;8.612;2022-07-18T05:58:38;6.90;;;2.58;;
1106;SDS011;540;49.448;8.612;2022-07-18T06:01:11;5.45;;;2.58;;
1106;SDS011;540;49.448;8.612;2022-07-18T06:03:43;3.80;;;1.77;;
1106;SDS011;540;49.448;8.612;2022-07-18T06:06:11;8.30;;;2.20;;
1106;SDS011;540;49.448;8.612;2022-07-18T06:08:38;3.75;;;2.40;;
1106;SDS011;540;49.448;8.612;2022-07-18T06:11:06;7.90;;;2.42;;
1106;SDS011;540;49.448;8.612;2022-07-18T06:13:35;4.72;;;2.20;;
1106;SDS011;540;49.448;8.612;2022-07-18T06:16:06;5.05;;;2.08;;
1106;SDS011;540;49.448;8.612;2022-07-18T06:18:35;3.95;;;1.90;;
1106;SDS011;540;49.448;8.612;2022-07-18T06:21:03;7.90;;;1.95;;
1106;SDS011;540;49.448;8.612;2022-07-18T06:23:31;2.67;;;1.60;;
1106;SDS011;540;49.448;8.612;2022-07-18T06:25:59;6.03;;;1.90;;
1106;SDS011;540;49.448;8.612;2022-07-18T06:28:27;3.17;;;1.77;;
1106;SDS011;540;49.448;8.612;2022-07-18T06:30:57;3.30;;;1.85;;
1106;SDS011;540;49.448;8.612;2022-07-18T06:33:25;3.13;;;1.73;;
1106;SDS011;540;49.448;8.612;2022-07-18T06:35:53;4.43;;;2.33;;
1106;SDS011;540;49.448;8.612;2022-07-18T06:38:20;5.57;;;1.60;;
1106;SDS011;540;49.448;8.612;2022-07-18T06:40:48;5.30;;;1.90;;
1106;SDS011;540;49.448;8.612;2022-07-18T06:43:16;5.72;;;2.30;;
1106;SDS011;540;49.448;8.612;2022-07-18T06:45:46;6.07;;;3.75;;
1106;SDS011;540;49.448;8.612;2022-07-18T06:48:15;6.45;;;2.20;;
1106;SDS011;540;49.448;8.612;2022-07-18T06:50:43;8.40;;;2.03;;
1106;SDS011;540;49.448;8.612;2022-07-18T06:53:11;4.05;;;1.88;;
1106;SDS011;540;49.448;8.612;2022-07-18T06:55:39;3.20;;;1.73;;
1106;SDS011;540;49.448;8.612;2022-07-18T06:58:07;2.85;;;1.52;;
1106;SDS011;540;49.448;8.612;2022-07-18T07:00:35;4.85;;;2.10;;
1106;SDS011;540;49.448;8.612;2022-07-18T07:03:03;5.05;;;3.50;;
1106;SDS011;540;49.448;8.612;2022-07-18T07:05:33;3.67;;;2.00;;
1106;SDS011;540;49.448;8.612;2022-07-18T07:08:01;4.13;;;1.88;;
1106;SDS011;540;49.448;8.612;2022-07-18T07:10:28;4.53;;;1.73;;
1106;SDS011;540;49.448;8.612;2022-07-18T07:12:56;5.78;;;2.50;;
1106;SDS011;540;49.448;8.612;2022-07-18T07:15:25;4.65;;;1.83;;
1106;SDS011;540;49.448;8.612;2022-07-18T07:17:53;7.82;;;1.80;;
1106;SDS011;540;49.448;8.612;2022-07-18T07:20:20;7.05;;;2.58;;
1106;SDS011;540;49.448;8.612;2022-07-18T07:22:50;5.05;;;2.13;;
1106;SDS011;540;49.448;8.612;2022-07-18T07:25:20;7.30;;;2.20;;
1106;SDS011;540;49.448;8.612;2022-07-18T07:27:49;6.38;;;1.90;;
1106;SDS011;540;49.448;8.612;2022-07-18T07:30:21;2.88;;;1.80;;
1106;SDS011;540;49.448;8.612;2022-07-18T07:32:49;4.07;;;2.10;;
1106;SDS011;540;49.448;8.612;2022-07-18T07:35:17;5.50;;;2.55;;
1106;SDS011;540;49.448;8.612;2022-07-18T07:37:47;3.10;;;2.00;;
1106;SDS011;540;49.448;8.612;2022-07-18T07:40:17;4.40;;;2.35;;
1106;SDS011;540;49.448;8.612;2022-07-18T07:42:46;7.80;;;2.80;;
1106;SDS011;540;49.448;8.612;2022-07-18T07:45:14;5.68;;;2.35;;
1106;SDS011;540;49.448;8.612;2022-07-18T07:47:42;5.88;;;3.03;;
1106;SDS011;540;49.448;8.612;2022-07-18T07:50:10;7.15;;;2.85;;
1106;SDS011;540;49.448;8.612;2022-07-18T07:52:39;7.53;;;3.30;;
1106;SDS011;540;49.448;8.612;2022-07-18T07:55:07;9.48;;;3.95;;
1106;SDS011;540;49.448;8.612;2022-07-18T07:57:37;10.75;;;4.53;;
1106;SDS011;540;49.448;8.612;2022-07-18T08:00:06;7.93;;;4.10;;
1106;SDS011;540;49.448;8.612;2022-07-18T08:02:36;9.05;;;3.78;;
1106;SDS011;540;49.448;8.612;2022-07-18T08:05:04;8.75;;;4.10;;
1106;SDS011;540;49.448;8.612;2022-07-18T08:07:32;8.00;;;4.82;;
1106;SDS011;540;49.448;8.612;2022-07-18T08:10:00;11.80;;;3.90;;
1106;SDS011;540;49.448;8.612;2022-07-18T08:12:28;9.30;;;4.05;;
1106;SDS011;540;49.448;8.612;2022-07-18T08:14:57;6.80;;;3.70;;
1106;SDS011;540;49.448;8.612;2022-07-18T08:17:25;9.43;;;3.20;;
1106;SDS011;540;49.448;8.612;2022-07-18T08:19:52;14.02;;;4.32;;
1106;SDS011;540;49.448;8.612;2022-07-18T08:22:20;11.00;;;3.65;;
1106;SDS011;540;49.448;8.612;2022-07-18T08:24:48;14.20;;;3.60;;
1106;SDS011;540;49.448;8.612;2022-07-18T08:27:16;5.75;;;2.60;;
1106;SDS011;540;49.448;8.612;2022-07-18T08:29:44;6.47;;;2.00;;
1106;SDS011;540;49.448;8.612;2022-07-18T08:32:34;7.43;;;2.53;;
1106;SDS011;540;49.448;8.612;2022-07-18T08:35:02;5.53;;;2.90;;
1106;SDS011;540;49.448;8.612;2022-07-18T08:37:31;7.07;;;2.50;;
1106;SDS011;540;49.448;8.612;2022-07-18T08:39:59;7.90;;;2.90;;
1106;SDS011;540;49.448;8.612;2022-07-18T08:42:27;4.22;;;2.33;;
1106;SDS011;540;49.448;8.612;2022-07-18T08:44:55;2.85;;;1.98;;
1106;SDS011;540;49.448;8.612;2022-07-18T08:47:23;5.07;;;2.17;;
1106;SDS011;540;49.448;8.612;2022-07-18T08:49:57;3.80;;;2.28;;
1106;SDS011;540;49.448;8.612;2022-07-18T08:52:26;6.95;;;1.88;;
1106;SDS011;540;49.448;8.612;2022-07-18T08:55:14;2.42;;;1.60;;
1106;SDS011;540;49.448;8.612;2022-07-18T08:57:51;5.38;;;1.83;;
1106;SDS011;540;49.448;8.612;2022-07-18T09:00:19;4.57;;;1.90;;
1106;SDS011;540;49.448;8.612;2022-07-18T09:02:55;6.53;;;1.80;;
1106;SDS011;540;49.448;8.612;2022-07-18T09:05:26;4.22;;;1.88;;
1106;SDS011;540;49.448;8.612;2022-07-18T09:08:07;3.88;;;1.70;;
1106;SDS011;540;49.448;8.612;2022-07-18T09:10:42;2.63;;;1.45;;
1106;SDS011;540;49.448;8.612;2022-07-18T09:13:16;3.40;;;1.38;;
1106;SDS011;540;49.448;8.612;2022-07-18T09:15:59;2.72;;;1.42;;
1106;SDS011;540;49.448;8.612;2022-07-18T09:18:28;2.92;;;1.17;;
1106;SDS011;540;49.448;8.612;2022-07-18T09:21:06;4.15;;;1.70;;
1106;SDS011;540;49.448;8.612;2022-07-18T09:23:36;1.73;;;1.13;;
1106;SDS011;540;49.448;8.612;2022-07-18T09:26:06;2.30;;;1.40;;
1106;SDS011;540;49.448;8.612;2022-07-18T09:28:47;2.03;;;1.55;;
1106;SDS011;540;49.448;8.612;2022-07-18T09:31:36;5.10;;;1.75;;
1106;SDS011;540;49.448;8.612;2022-07-18T09:34:04;1.58;;;1.10;;
1106;SDS011;540;49.448;8.612;2022-07-18T09:36:34;4.50;;;1.70;;
1106;SDS011;540;49.448;8.612;2022-07-18T09:39:15;4.65;;;1.50;;
1106;SDS011;540;49.448;8.612;2022-07-18T09:41:44;3.03;;;1.25;;
1106;SDS011;540;49.448;8.612;2022-07-18T09:44:15;6.80;;;1.77;;
1106;SDS011;540;49.448;8.612;2022-07-18T09:46:58;4.20;;;1.40;;
1106;SDS011;540;49.448;8.612;2022-07-18T09:49:28;5.53;;;1.00;;
1106;SDS011;540;49.448;8.612;2022-07-18T09:52:05;2.75;;;1.20;;
1106;SDS011;540;49.448;8.612;2022-07-18T09:54:35;3.38;;;1.40;;
1106;SDS011;540;49.448;8.612;2022-07-18T09:57:07;1.77;;;1.10;;
1106;SDS011;540;49.448;8.612;2022-07-18T09:59:35;3.88;;;1.50;;
1106;SDS011;540;49.448;8.612;2022-07-18T10:02:03;3.15;;;1.30;;
1106;SDS011;540;49.448;8.612;2022-07-18T10:04:32;3.13;;;1.35;;
1106;SDS011;540;49.448;8.612;2022-07-18T10:07:00;4.88;;;1.30;;
1106;SDS011;540;49.448;8.612;2022-07-18T10:09:31;5.10;;;2.05;;
1106;SDS011;540;49.448;8.612;2022-07-18T10:12:00;10.48;;;1.27;;
1106;SDS011;540;49.448;8.612;2022-07-18T10:14:28;2.15;;;1.20;;
1106;SDS011;540;49.448;8.612;2022-07-18T10:16:57;2.65;;;1.10;;
1106;SDS011;540;49.448;8.612;2022-07-18T10:19:26;4.30;;;1.00;;
1106;SDS011;540;49.448;8.612;2022-07-18T10:21:54;3.40;;;1.20;;
1106;SDS011;540;49.448;8.612;2022-07-18T10:24:24;7.80;;;1.05;;
1106;SDS011;540;49.448;8.612;2022-07-18T10:27:14;1.05;;;0.98;;
1106;SDS011;540;49.448;8.612;2022-07-18T10:32:36;2.60;;;1.15;;
1106;SDS011;540;49.448;8.612;2022-07-18T10:35:05;1.75;;;1.15;;
1106;SDS011;540;49.448;8.612;2022-07-18T10:37:34;3.70;;;1.38;;
1106;SDS011;540;49.448;8.612;2022-07-18T10:40:21;2.22;;;1.05;;
1106;SDS011;540;49.448;8.612;2022-07-18T10:45:58;3.17;;;1.00;;
1106;SDS011;540;49.448;8.612;2022-07-18T10:51:30;0.90;;;0.80;;
1106;SDS011;540;49.448;8.612;2022-07-18T10:54:10;1.33;;;1.00;;
1106;SDS011;540;49.448;8.612;2022-07-18T10:59:33;1.97;;;1.50;;
1106;SDS011;540;49.448;8.612;2022-07-18T11:02:05;2.88;;;1.58;;
1106;SDS011;540;49.448;8.612;2022-07-18T11:04:35;1.90;;;1.10;;
1106;SDS011;540;49.448;8.612;2022-07-18T11:07:07;2.08;;;1.20;;
1106;SDS011;540;49.448;8.612;2022-07-18T11:09:38;1.27;;;1.17;;
1106;SDS011;540;49.448;8.612;2022-07-18T11:12:24;1.67;;;1.27;;
1106;SDS011;540;49.448;8.612;2022-07-18T11:15:03;5.13;;;1.80;;
1106;SDS011;540;49.448;8.612;2022-07-18T11:17:57;2.22;;;2.00;;
1106;SDS011;540;49.448;8.612;2022-07-18T11:20:29;2.03;;;1.10;;
1106;SDS011;540;49.448;8.612;2022-07-18T11:23:03;1.85;;;1.23;;
1106;SDS011;540;49.448;8.612;2022-07-18T11:25:39;2.97;;;1.00;;
1106;SDS011;540;49.448;8.612;2022-07-18T11:30:59;2.22;;;1.30;;
1106;SDS011;540;49.448;8.612;2022-07-18T11:33:30;1.27;;;1.08;;
1106;SDS011;540;49.448;8.612;2022-07-18T11:36:04;2.10;;;1.08;;
1106;SDS011;540;49.448;8.612;2022-07-18T11:38:34;3.65;;;1.35;;
1106;SDS011;540;49.448;8.612;2022-07-18T11:41:04;2.08;;;1.52;;
1106;SDS011;540;49.448;8.612;2022-07-18T11:43:32;0.90;;;0.90;;
1106;SDS011;540;49.448;8.612;2022-07-18T11:46:02;2.97;;;0.90;;
1106;SDS011;540;49.448;8.612;2022-07-18T11:48:42;3.45;;;1.50;;
1106;SDS011;540;49.448;8.612;2022-07-18T11:51:11;3.53;;;1.20;;
1106;SDS011;540;49.448;8.612;2022-07-18T11:53:43;2.90;;;1.00;;
1106;SDS011;540;49.448;8.612;2022-07-18T11:56:11;3.35;;;1.10;;
1106;SDS011;540;49.448;8.612;2022-07-18T11:58:41;1.58;;;0.90;;
1106;SDS011;540;49.448;8.612;2022-07-18T12:01:10;6.97;;;1.20;;
1106;SDS011;540;49.448;8.612;2022-07-18T12:03:39;2.35;;;1.30;;
1106;SDS011;540;49.448;8.612;2022-07-18T12:06:10;1.65;;;0.98;;
1106;SDS011;540;49.448;8.612;2022-07-18T12:08:40;3.00;;;1.40;;
1106;SDS011;540;49.448;8.612;2022-07-18T12:11:16;2.97;;;1.10;;
1106;SDS011;540;49.448;8.612;2022-07-18T12:13:48;4.43;;;1.27;;
1106;SDS011;540;49.448;8.612;2022-07-18T12:19:06;3.92;;;1.15;;
1106;SDS011;540;49.448;8.612;2022-07-18T12:21:49;2.63;;;1.10;;
1106;SDS011;540;49.448;8.612;2022-07-18T12:24:22;1.55;;;1.00;;
1106;SDS011;540;49.448;8.612;2022-07-18T12:27:11;11.80;;;1.33;;
1106;SDS011;540;49.448;8.612;2022-07-18T12:29:53;3.55;;;1.23;;
1106;SDS011;540;49.448;8.612;2022-07-18T12:32:39;1.92;;;1.00;;
1106;SDS011;540;49.448;8.612;2022-07-18T12:35:15;3.75;;;2.70;;
1106;SDS011;540;49.448;8.612;2022-07-18T12:37:55;2.70;;;1.80;;
1106;SDS011;540;49.448;8.612;2022-07-18T12:40:24;1.50;;;1.20;;
1106;SDS011;540;49.448;8.612;2022-07-18T12:43:02;2.35;;;1.40;;
1106;SDS011;540;49.448;8.612;2022-07-18T12:45:33;2.15;;;0.88;;
1106;SDS011;540;49.448;8.612;2022-07-18T12:48:02;2.13;;;1.08;;
1106;SDS011;540;49.448;8.612;2022-07-18T12:50:33;1.33;;;1.05;;
1106;SDS011;540;49.448;8.612;2022-07-18T12:53:01;1.52;;;1.40;;
1106;SDS011;540;49.448;8.612;2022-07-18T12:55:29;2.78;;;1.77;;
1106;SDS011;540;49.448;8.612;2022-07-18T12:57:58;2.13;;;1.05;;
1106;SDS011;540;49.448;8.612;2022-07-18T13:00:27;1.55;;;1.02;;
1106;SDS011;540;49.448;8.612;2022-07-18T13:02:55;2.25;;;1.05;;
1106;SDS011;540;49.448;8.612;2022-07-18T13:05:24;1.83;;;0.90;;
1106;SDS011;540;49.448;8.612;2022-07-18T13:07:54;2.35;;;1.08;;
1106;SDS011;540;49.448;8.612;2022-07-18T13:10:22;4.00;;;1.30;;
1106;SDS011;540;49.448;8.612;2022-07-18T13:12:50;3.13;;;1.20;;
1106;SDS011;540;49.448;8.612;2022-07-18T13:15:17;1.55;;;0.85;;
1106;SDS011;540;49.448;8.612;2022-07-18T13:17:47;2.10;;;0.90;;
1106;SDS011;540;49.448;8.612;2022-07-18T13:20:15;3.97;;;1.40;;
1106;SDS011;540;49.448;8.612;2022-07-18T13:22:43;1.95;;;1.13;;
1106;SDS011;540;49.448;8.612;2022-07-18T13:25:20;3.53;;;1.83;;
1106;SDS011;540;49.448;8.612;2022-07-18T13:27:49;5.60;;;1.30;;
1106;SDS011;540;49.448;8.612;2022-07-18T13:30:17;1.40;;;1.00;;
1106;SDS011;540;49.448;8.612;2022-07-18T13:32:45;3.42;;;1.00;;
1106;SDS011;540;49.448;8.612;2022-07-18T13:35:14;5.00;;;1.50;;
1106;SDS011;540;49.448;8.612;2022-07-18T13:37:42;6.55;;;1.15;;
1106;SDS011;540;49.448;8.612;2022-07-18T13:40:11;3.40;;;1.48;;
1106;SDS011;540;49.448;8.612;2022-07-18T13:42:41;2.22;;;1.27;;
1106;SDS011;540;49.448;8.612;2022-07-18T13:45:10;0.82;;;0.80;;
1106;SDS011;540;49.448;8.612;2022-07-18T13:47:39;2.75;;;1.30;;
1106;SDS011;540;49.448;8.612;2022-07-18T13:50:08;7.18;;;1.60;;
1106;SDS011;540;49.448;8.612;2022-07-18T13:52:37;1.85;;;1.40;;
1106;SDS011;540;49.448;8.612;2022-07-18T13:55:05;2.63;;;1.17;;
1106;SDS011;540;49.448;8.612;2022-07-18T13:57:33;3.47;;;1.42;;
1106;SDS011;540;49.448;8.612;2022-07-18T14:00:03;2.63;;;1.17;;
1106;SDS011;540;49.448;8.612;2022-07-18T14:02:32;2.70;;;1.20;;
1106;SDS011;540;49.448;8.612;2022-07-18T14:05:01;1.88;;;1.15;;
1106;SDS011;540;49.448;8.612;2022-07-18T14:07:39;1.67;;;1.20;;
1106;SDS011;540;49.448;8.612;2022-07-18T14:10:08;2.22;;;1.30;;
1106;SDS011;540;49.448;8.612;2022-07-18T14:12:36;3.90;;;1.38;;
1106;SDS011;540;49.448;8.612;2022-07-18T14:15:06;1.92;;;1.52;;
1106;SDS011;540;49.448;8.612;2022-07-18T14:17:36;1.70;;;1.27;;
1106;SDS011;540;49.448;8.612;2022-07-18T14:20:05;4.25;;;1.35;;
1106;SDS011;540;49.448;8.612;2022-07-18T14:22:34;3.03;;;1.13;;
1106;SDS011;540;49.448;8.612;2022-07-18T14:25:02;2.20;;;1.30;;
1106;SDS011;540;49.448;8.612;2022-07-18T14:27:30;6.68;;;1.40;;
1106;SDS011;540;49.448;8.612;2022-07-18T14:29:58;2.75;;;1.42;;
1106;SDS011;540;49.448;8.612;2022-07-18T14:32:27;9.35;;;1.98;;
1106;SDS011;540;49.448;8.612;2022-07-18T14:34:55;6.60;;;1.63;;
1106;SDS011;540;49.448;8.612;2022-07-18T14:37:23;7.82;;;1.80;;
1106;SDS011;540;49.448;8.612;2022-07-18T14:39:51;7.22;;;1.42;;
1106;SDS011;540;49.448;8.612;2022-07-18T14:42:21;2.38;;;1.63;;
1106;SDS011;540;49.448;8.612;2022-07-18T14:44:50;4.75;;;1.65;;
1106;SDS011;540;49.448;8.612;2022-07-18T14:47:17;2.42;;;1.27;;
1106;SDS011;540;49.448;8.612;2022-07-18T14:49:47;9.07;;;1.65;;
1106;SDS011;540;49.448;8.612;2022-07-18T14:52:14;2.58;;;1.40;;
1106;SDS011;540;49.448;8.612;2022-07-18T14:54:42;5.22;;;1.50;;
1106;SDS011;540;49.448;8.612;2022-07-18T14:57:10;2.85;;;1.08;;
1106;SDS011;540;49.448;8.612;2022-07-18T14:59:42;2.20;;;1.55;;
1106;SDS011;540;49.448;8.612;2022-07-18T15:02:09;2.05;;;1.52;;
1106;SDS011;540;49.448;8.612;2022-07-18T15:04:39;2.53;;;1.30;;
1106;SDS011;540;49.448;8.612;2022-07-18T15:07:08;3.45;;;2.40;;
1106;SDS011;540;49.448;8.612;2022-07-18T15:09:37;4.22;;;1.60;;
1106;SDS011;540;49.448;8.612;2022-07-18T15:12:05;4.45;;;1.60;;
1106;SDS011;540;49.448;8.612;2022-07-18T15:14:34;1.67;;;1.58;;
1106;SDS011;540;49.448;8.612;2022-07-18T15:17:02;2.55;;;1.33;;
1106;SDS011;540;49.448;8.612;2022-07-18T15:19:30;3.65;;;2.60;;
1106;SDS011;540;49.448;8.612;2022-07-18T15:21:58;2.75;;;1.55;;
1106;SDS011;540;49.448;8.612;2022-07-18T15:24:27;4.07;;;1.45;;
1106;SDS011;540;49.448;8.612;2022-07-18T15:26:55;5.45;;;1.75;;
1106;SDS011;540;49.448;8.612;2022-07-18T15:29:23;3.15;;;1.40;;
1106;SDS011;540;49.448;8.612;2022-07-18T15:31:51;3.65;;;1.33;;
1106;SDS011;540;49.448;8.612;2022-07-18T15:34:22;4.45;;;1.60;;
1106;SDS011;540;49.448;8.612;2022-07-18T15:36:50;3.53;;;1.50;;
1106;SDS011;540;49.448;8.612;2022-07-18T15:39:17;2.55;;;1.15;;
1106;SDS011;540;49.448;8.612;2022-07-18T15:41:47;1.70;;;1.33;;
1106;SDS011;540;49.448;8.612;2022-07-18T15:44:15;3.28;;;1.42;;
1106;SDS011;540;49.448;8.612;2022-07-18T15:46:43;2.00;;;1.33;;
1106;SDS011;540;49.448;8.612;2022-07-18T15:49:11;2.95;;;1.30;;
1106;SDS011;540;49.448;8.612;2022-07-18T15:51:39;3.80;;;1.23;;
1106;SDS011;540;49.448;8.612;2022-07-18T15:54:09;14.63;;;8.77;;
1106;SDS011;540;49.448;8.612;2022-07-18T15:56:37;3.28;;;1.65;;
1106;SDS011;540;49.448;8.612;2022-07-18T15:59:06;3.42;;;2.13;;
1106;SDS011;540;49.448;8.612;2022-07-18T16:01:34;2.75;;;1.95;;
1106;SDS011;540;49.448;8.612;2022-07-18T16:04:04;11.18;;;2.40;;